Stonington, ME (04645)

3:03 AM EST on February 12, 2016 (GMT -0500)
APRSWXNET | | Change Station
CLOSE
Current Station
Personal Weather Station
Location: Stonington, ME
Elevation: 36 ft
Nearby Weather Stations

Elev 36 ft 44.08 °N, 68.63 °W | Updated 37 minutes ago

Clear
Clear
8 °F
Feels Like -9 °F
N
14
Wind Variable Wind from NNW
Gusts 27.0 mph

Today
High -- | Low -- °F
--% Chance of Precip.
Yesterday
High -- | Low -- °F
Precip. -- in
Pressure 29.97 in
Visibility 10.0 miles
Clouds Clear
Windchill -9 °F
Dew Point 1 °F
Humidity 73%
Rainfall in
Snow Depth Not available.
6:38 AM 4:59 PM
Waxing Crescent, 18% visible
METAR KRKD 120756Z AUTO 30008KT 10SM CLR M17/M24 A2996 RMK AO2 SLP148 T11721239 FZRANO
Pressure 29.97 in
Visibility 10.0 miles
Clouds Clear
Windchill -9 °F
Dew Point 1 °F
Humidity 73%
Rainfall in
Snow Depth Not available.
6:38 AM 4:59 PM
Waxing Crescent, 18% visible
METAR KRKD 120756Z AUTO 30008KT 10SM CLR M17/M24 A2996 RMK AO2 SLP148 T11721239 FZRANO

10-Day Weather Forecast

Almanac

Astronomy

Feb. 12, 2016 Rise Set
Actual Time
Civil Twilight
Nautical Twilight
Astronomical Twilight
Moon
Length of Visible Light
Length of Day
Tomorrow will be .
, % of the Moon is Illuminated

Today's Extremes

State Highs State Lows

Community

WunderPhotos

Upload Photos

1,892,278 photos uploaded!

WunderBlog® & News

Nearby

Air Quality

  Air Quality AQ Index Pollutant
Not available.

Snow Depth

Station Depth Elevation

Earthquake Activity

City Distance Mag. Time & Date
Minimum magnitude displayed is 2.5.

Coastal Water Temperatures

Place Temperature

Stations

Nearby Weather Stations

Station Location Temp. Windchill Dew Point Humidity Wind Precip. Elev Updated Type
                   

Watches & Warnings

There are currently no watches in effect.